MNMGMHTG

Guest
Details From MNMG - Managua Intl
To MHTG - Tegucigalpa Toncontin Intl
Flight Number -
Tags Routegen Generated
Created
Modified
Stats Distance 134 nm / 249 km
Max Altitude 500 ft / 152 m
Waypoints 11
Social Downloads 4
Likes 0
Share VATSIM

Download

Looking for another format? Having issues loading an existing format? Contact us
Advertisement - Login to hide

Notes

Departing runway 27 MNMG. Arriving runway 1 MHTG.

Route

MNMG +12.15_-086.25 +12.18_-086.31 +12.22_-086.35 +12.27_-086.37 +12.89_-086.69 +13.83_-087.18 +13.87_-087.22 +13.93_-087.24 +13.98_-087.24 MHTG

ID Type Via Altitude Latitude Longitude Leg Dist Tot Dist Heading (true) Name
O MNMG APT - 0 ft / 0 m 12.14274˚ -86.17933˚ - 0 nm - -
+12.15_-086.25 LATLON - 500 ft / 152 m 12.15099˚ -86.25287˚ 4 nm 4 nm 277° / 277° -
+12.18_-086.31 LATLON - 500 ft / 152 m 12.17686˚ -86.30585˚ 3 nm 7 nm 297° / 297° -
+12.22_-086.35 LATLON - 500 ft / 152 m 12.21888˚ -86.34659˚ 3 nm 11 nm 317° / 317° -
+12.27_-086.37 LATLON - 500 ft / 152 m 12.27199˚ -86.37016˚ 3 nm 14 nm 337° / 337° -
+12.89_-086.69 LATLON - 500 ft / 152 m 12.88880˚ -86.68815˚ 41 nm 56 nm 333° / 333° -
+13.83_-087.18 LATLON - 500 ft / 152 m 13.82895˚ -87.18225˚ 63 nm 119 nm 333° / 333° -
+13.87_-087.22 LATLON - 500 ft / 152 m 13.87256˚ -87.22146˚ 3 nm 123 nm 319° / 319° -
+13.93_-087.24 LATLON - 500 ft / 152 m 13.92656˚ -87.24295˚ 3 nm 126 nm 339° / 339° -
+13.98_-087.24 LATLON - 500 ft / 152 m 13.98445˚ -87.24413˚ 3 nm 130 nm 359° / 359° -
O MHTG APT - 0 ft / 0 m 14.05292˚ -87.22000˚ 4 nm 134 nm 19° / 19° -

Altitude Profile

Advertisement - Login to hide

MNMG

Details ICAO MNMG (MGA)
Name Managua Intl
Region Nicaragua
Timezone America/Managua (UTC-6.0)
Stats Elevation 194 ft / 59 m (AMSL)
Location 12.141493° -86.168178°
Runways 1
Magnetic Variation 1.009° W

METAR

MNMG 261600Z 20004KT 9000 SCT020 BKN070 27/23 Q1010 A2985 HZ NOSIG

Decode

TAF

TAF MNMG 260600Z 2606/2706 13004KT 6000 SCT020 SCT050 BECMG 2613/2618 07008KT 9999 TEMPO 2619/2703 13010KT 7000 DZ/-TSRA FEW022CB SCT080

Decode

Departure Runways

ID Width Length Bearing (true) Bearing (mag) Surface Threshold Offset Overrun Length
09 148 ft / 45 m 8,008 ft / 2,441 m 96.54° 97.55° Asphalt 0 ft / 0 m 100 ft / 30 m
27 148 ft / 45 m 8,008 ft / 2,441 m 276.55° 277.56° Asphalt 0 ft / 0 m 100 ft / 30 m

MHTG

Details ICAO MHTG (TGU)
Name Tegucigalpa Toncontin Intl
Region Honduras
Timezone America/Tegucigalpa (UTC-6.0)
Stats Elevation 3,294 ft / 1,004 m (AMSL)
Location 14.060883° -87.217197°
Runways 1
Magnetic Variation 0.722° W

METAR

MHTG 261600Z 00000KT 9999 FEW026 BKN250 24/19 Q1016 A3000 NOSIG

Decode

TAF

Not found

Destination Runways

ID Width Length Bearing (true) Bearing (mag) Surface Threshold Offset Overrun Length
02 148 ft / 45 m 6,140 ft / 1,872 m 18.87° 19.59° Asphalt 670 ft / 204 m 100 ft / 30 m
20 148 ft / 45 m 6,140 ft / 1,872 m 198.87° 199.59° Asphalt 0 ft / 0 m 200 ft / 61 m

Popular Alternatives